Time;durP1;ratioP1;P1;durP2;ratioP2;P2;SDS_P1;SDS_P2;PMS_P1;PMS_P2;Temp;Humidity;BMP_temperature;BMP_pressure;BME280_temperature;BME280_humidity;BME280_pressure;Samples;Min_cycle;Max_cycle;Signal;HPM_P1;HPM_P2
2022/08/11 00:01:45;;;;;;;5.35;3.00;;;21.60;68.70;;;;;;4934985;29;20055;-46
2022/08/11 00:04:12;;;;;;;4.70;2.65;;;21.60;68.70;;;;;;4934078;29;20075;-46
2022/08/11 00:06:39;;;;;;;5.38;2.90;;;21.60;68.80;;;;;;4934271;29;20024;-46
2022/08/11 00:09:09;;;;;;;3.00;2.70;;;21.50;68.80;;;;;;4934261;29;20035;-46
2022/08/11 00:11:49;;;;;;;9.52;3.50;;;21.50;69.00;;;;;;4934204;29;20078;-46
2022/08/11 00:14:22;;;;;;;3.47;3.17;;;21.50;69.10;;;;;;4934049;29;20024;-48
2022/08/11 00:16:54;;;;;;;5.93;3.88;;;21.40;69.20;;;;;;4934182;29;20565;-46
2022/08/11 00:19:31;;;;;;;6.90;3.13;;;21.40;69.50;;;;;;4934230;29;20035;-49
2022/08/11 00:21:58;;;;;;;8.73;2.83;;;21.30;69.70;;;;;;4933677;29;20110;-50
2022/08/11 00:24:24;;;;;;;7.55;2.55;;;21.20;69.70;;;;;;4934019;29;20039;-49
2022/08/11 00:26:51;;;;;;;5.20;2.88;;;21.20;69.80;;;;;;4934109;29;20273;-47
2022/08/11 00:29:19;;;;;;;8.93;3.03;;;21.20;69.70;;;;;;4934003;29;20023;-51
2022/08/11 00:31:53;;;;;;;4.43;2.97;;;21.20;70.00;;;;;;4933741;29;20110;-48
2022/08/11 00:34:31;;;;;;;3.15;2.60;;;21.20;70.10;;;;;;4933917;29;20031;-49
2022/08/11 00:37:04;;;;;;;5.78;2.80;;;21.20;70.20;;;;;;4933919;29;20031;-50
2022/08/11 00:39:33;;;;;;;3.80;3.45;;;21.10;70.30;;;;;;4933853;29;20024;-47
2022/08/11 00:42:02;;;;;;;4.75;3.17;;;21.10;70.60;;;;;;4933486;29;20110;-49
2022/08/11 00:44:31;;;;;;;11.20;3.35;;;21.00;70.60;;;;;;4934209;29;20409;-49
2022/08/11 00:47:11;;;;;;;8.73;3.08;;;21.00;70.70;;;;;;4936844;29;20043;-48
2022/08/11 00:49:44;;;;;;;7.03;2.90;;;20.90;70.70;;;;;;4937240;29;20099;-47
2022/08/11 00:52:47;;;;;;;7.18;3.22;;;21.00;70.60;;;;;;4937189;29;20055;-46
2022/08/11 00:55:50;;;;;;;6.88;2.95;;;21.00;70.60;;;;;;4937367;29;20107;-46
2022/08/11 00:58:53;;;;;;;7.80;2.83;;;21.00;70.60;;;;;;4937371;29;20027;-48
2022/08/11 01:01:43;;;;;;;4.35;2.63;;;20.90;70.50;;;;;;4936956;29;20027;-47
2022/08/11 01:04:37;;;;;;;3.10;2.72;;;20.90;70.60;;;;;;4937254;29;20024;-47
2022/08/11 01:07:30;;;;;;;3.05;2.72;;;20.90;70.80;;;;;;4937147;29;20020;-47
2022/08/11 01:10:10;;;;;;;3.55;2.88;;;20.80;71.00;;;;;;4937138;29;20438;-47
2022/08/11 01:13:05;;;;;;;6.28;2.58;;;20.80;70.90;;;;;;4936866;29;20374;-47
2022/08/11 01:15:33;;;;;;;3.88;3.38;;;20.70;71.10;;;;;;4937210;29;20047;-49
2022/08/11 01:18:28;;;;;;;5.03;2.97;;;20.70;71.10;;;;;;4936863;29;20556;-52
2022/08/11 01:21:19;;;;;;;6.90;2.88;;;20.70;71.00;;;;;;4936827;29;20036;-46
2022/08/11 01:24:04;;;;;;;5.30;2.95;;;20.70;71.10;;;;;;4936647;29;20082;-46
2022/08/11 01:26:57;;;;;;;2.88;2.60;;;20.70;71.20;;;;;;4935645;29;20621;-52
2022/08/11 01:30:02;;;;;;;5.43;3.65;;;20.60;70.90;;;;;;4937107;29;20047;-49
2022/08/11 01:32:46;;;;;;;3.17;2.97;;;20.70;71.10;;;;;;4936343;29;20032;-49
2022/08/11 01:35:38;;;;;;;10.77;2.83;;;20.70;71.00;;;;;;4936808;29;20106;-48
2022/08/11 01:38:34;;;;;;;7.18;2.80;;;20.60;71.20;;;;;;4937024;29;20028;-47
2022/08/11 01:41:25;;;;;;;3.38;2.72;;;20.60;71.20;;;;;;4936459;29;20040;-46
2022/08/11 01:44:38;;;;;;;4.53;3.10;;;20.60;71.10;;;;;;4936513;29;20071;-52
2022/08/11 01:47:50;;;;;;;6.00;2.78;;;20.50;71.00;;;;;;4911445;29;20050;-48
2022/08/11 01:50:30;;;;;;;5.43;3.00;;;20.50;71.30;;;;;;4936318;29;20031;-47
2022/08/11 01:53:27;;;;;;;3.17;2.50;;;20.50;71.20;;;;;;4935932;29;20020;-49
2022/08/11 01:56:16;;;;;;;4.07;3.15;;;20.50;71.20;;;;;;4936461;29;20107;-51
2022/08/11 01:58:59;;;;;;;3.38;3.00;;;20.50;71.30;;;;;;4936453;29;20325;-46
2022/08/11 02:01:39;;;;;;;4.97;2.70;;;20.50;71.60;;;;;;4935912;29;20039;-48
2022/08/11 02:04:32;;;;;;;5.40;2.83;;;20.50;71.60;;;;;;4936112;29;20044;-47
2022/08/11 02:07:31;;;;;;;3.92;3.05;;;20.40;71.60;;;;;;4936129;29;20036;-47
2022/08/11 02:13:40;;;;;;;5.65;3.35;;;20.40;71.80;;;;;;4935968;29;20066;-49
2022/08/11 02:16:47;;;;;;;9.55;3.47;;;20.30;71.80;;;;;;4935908;29;20047;-49
2022/08/11 02:25:03;;;;;;;5.35;3.55;;;20.30;72.10;;;;;;4936143;29;20039;-50
2022/08/11 02:27:49;;;;;;;5.57;3.40;;;20.20;72.00;;;;;;4936014;29;20449;-46
2022/08/11 02:30:19;;;;;;;3.33;2.97;;;20.20;72.30;;;;;;4935652;29;20102;-48
2022/08/11 02:35:54;;;;;;;3.67;2.85;;;20.10;72.30;;;;;;4936029;29;20462;-47
2022/08/11 02:38:44;;;;;;;7.18;3.10;;;20.10;72.30;;;;;;4935602;29;20034;-50
2022/08/11 02:44:36;;;;;;;6.80;3.20;;;20.10;72.50;;;;;;4935590;29;20039;-50
2022/08/11 02:47:07;;;;;;;3.97;3.20;;;20.10;72.50;;;;;;4929915;29;20156;-50
2022/08/11 02:49:53;;;;;;;9.40;3.88;;;20.10;72.80;;;;;;4935194;29;20027;-53
2022/08/11 02:52:30;;;;;;;3.22;2.92;;;20.00;72.80;;;;;;4935040;29;20140;-51
2022/08/11 02:55:26;;;;;;;8.68;3.17;;;20.00;72.90;;;;;;4935260;29;20042;-47
2022/08/11 02:58:13;;;;;;;8.95;3.22;;;20.00;72.90;;;;;;4935203;29;20042;-47
2022/08/11 03:00:49;;;;;;;6.55;3.03;;;20.00;73.00;;;;;;4933826;29;20036;-48
2022/08/11 03:03:24;;;;;;;6.28;3.50;;;20.00;73.20;;;;;;4935292;29;20118;-47
2022/08/11 03:06:10;;;;;;;3.63;3.08;;;19.90;73.40;;;;;;4935315;29;20015;-48
2022/08/11 03:08:58;;;;;;;3.42;2.90;;;19.90;73.30;;;;;;4934915;29;20497;-47
2022/08/11 03:17:57;;;;;;;4.70;3.20;;;19.90;73.50;;;;;;4934967;29;20560;-49
2022/08/11 03:20:41;;;;;;;4.53;3.05;;;19.80;73.70;;;;;;4934983;29;20035;-47
2022/08/11 03:23:28;;;;;;;4.03;3.08;;;19.80;73.70;;;;;;4934532;29;20106;-49
2022/08/11 03:26:25;;;;;;;6.00;2.63;;;19.80;73.70;;;;;;4934785;29;20032;-47
2022/08/11 03:29:07;;;;;;;5.43;2.90;;;19.90;73.70;;;;;;4934821;29;20045;-51
2022/08/11 03:31:48;;;;;;;7.70;3.00;;;19.90;73.80;;;;;;4934696;29;20106;-50
2022/08/11 03:34:24;;;;;;;3.60;3.28;;;19.90;73.90;;;;;;4934515;29;20085;-48
2022/08/11 03:44:05;;;;;;;8.30;3.10;;;19.80;74.20;;;;;;4917333;29;20109;-50
2022/08/11 03:46:43;;;;;;;8.00;3.20;;;19.70;74.30;;;;;;4934382;29;20032;-47
2022/08/11 03:49:20;;;;;;;7.80;3.40;;;19.70;74.30;;;;;;4934507;29;20063;-50
2022/08/11 03:52:18;;;;;;;5.20;3.45;;;19.70;74.50;;;;;;4934078;29;20044;-48
2022/08/11 03:55:07;;;;;;;8.00;3.50;;;19.70;74.50;;;;;;4934401;29;20027;-52
2022/08/11 03:58:11;;;;;;;6.07;3.28;;;19.60;74.70;;;;;;4934549;29;20038;-47
2022/08/11 04:01:01;;;;;;;5.55;3.40;;;19.60;74.70;;;;;;4934304;29;20035;-49
2022/08/11 04:04:06;;;;;;;5.55;3.75;;;19.60;74.80;;;;;;4933978;29;20063;-47
2022/08/11 04:07:08;;;;;;;4.05;3.58;;;19.60;74.70;;;;;;4934246;29;20481;-49
2022/08/11 04:10:31;;;;;;;5.45;2.70;;;19.60;74.90;;;;;;4934007;29;20039;-47
2022/08/11 04:13:33;;;;;;;8.30;3.50;;;19.60;75.00;;;;;;4875213;29;20092;-48
2022/08/11 04:16:33;;;;;;;3.17;2.97;;;19.60;75.00;;;;;;4875736;29;20040;-47
2022/08/11 04:19:09;;;;;;;4.80;3.10;;;19.60;75.00;;;;;;4934614;29;20485;-50
2022/08/11 04:22:12;;;;;;;3.88;3.17;;;19.60;75.00;;;;;;4937912;29;20028;-50
2022/08/11 04:25:03;;;;;;;8.98;3.30;;;19.70;75.00;;;;;;4936909;29;20024;-49
2022/08/11 04:28:22;;;;;;;5.20;3.10;;;19.60;75.10;;;;;;4938349;29;20078;-48
2022/08/11 04:31:04;;;;;;;10.43;3.55;;;19.60;75.20;;;;;;4879235;29;20037;-50
2022/08/11 04:33:48;;;;;;;3.38;3.03;;;19.60;75.30;;;;;;4937911;29;20028;-48
2022/08/11 04:39:39;;;;;;;4.40;3.17;;;19.60;75.20;;;;;;4938103;29;20050;-49
2022/08/11 04:45:34;;;;;;;5.78;3.58;;;19.70;75.20;;;;;;4937577;29;20137;-49
2022/08/11 05:07:15;;;;;;;4.10;3.15;;;20.80;72.70;;;;;;4937312;29;20516;-47
2022/08/11 05:10:02;;;;;;;7.35;3.40;;;21.40;71.50;;;;;;4937142;29;20024;-48
2022/08/11 05:12:42;;;;;;;7.47;3.10;;;21.80;70.60;;;;;;4936759;29;20031;-51
2022/08/11 05:36:11;;;;;;;6.78;2.67;;;24.00;65.60;;;;;;4937216;29;20543;-45
2022/08/11 05:58:06;;;;;;;5.65;2.75;;;24.90;63.60;;;;;;4936449;29;20520;-47
2022/08/11 06:00:44;;;;;;;4.45;3.05;;;25.20;63.40;;;;;;4937262;29;20039;-48
2022/08/11 06:03:19;;;;;;;5.70;3.38;;;25.40;62.90;;;;;;4935920;29;20020;-49
2022/08/11 06:05:45;;;;;;;9.57;2.85;;;25.50;62.60;;;;;;4936335;29;20031;-48
2022/08/11 06:08:12;;;;;;;4.60;2.67;;;25.40;62.60;;;;;;4936159;29;20032;-49
2022/08/11 06:10:41;;;;;;;7.53;2.47;;;25.50;62.80;;;;;;4935949;29;20556;-49
2022/08/11 06:13:08;;;;;;;12.85;2.75;;;25.70;62.10;;;;;;4935896;29;20035;-48
2022/08/11 06:15:50;;;;;;;8.23;2.78;;;25.80;62.30;;;;;;4936183;29;20028;-47
2022/08/11 06:18:17;;;;;;;7.63;3.42;;;26.00;62.10;;;;;;4936260;29;20031;-52
2022/08/11 06:21:01;;;;;;;5.85;2.60;;;26.20;62.40;;;;;;4935842;29;20075;-48
2022/08/11 06:23:31;;;;;;;6.10;2.90;;;26.10;61.60;;;;;;4935858;29;20032;-48
2022/08/11 06:25:58;;;;;;;3.67;2.47;;;26.20;61.90;;;;;;4935897;29;20032;-48
2022/08/11 06:28:33;;;;;;;10.65;2.63;;;26.70;61.10;;;;;;4935658;29;20031;-51
2022/08/11 06:31:01;;;;;;;5.95;2.28;;;27.40;60.10;;;;;;4935572;29;20028;-49
2022/08/11 06:33:46;;;;;;;10.20;2.97;;;27.60;59.00;;;;;;4935333;29;20062;-48
2022/08/11 06:36:37;;;;;;;7.13;2.17;;;27.80;59.20;;;;;;4939268;29;20031;-48
2022/08/11 06:39:19;;;;;;;3.53;2.22;;;27.80;59.00;;;;;;4952189;29;20035;-46
2022/08/11 06:41:52;;;;;;;6.28;2.53;;;27.60;59.10;;;;;;4951956;29;20392;-52
2022/08/11 06:44:32;;;;;;;4.25;2.30;;;27.70;59.10;;;;;;4953696;28;20454;-52
2022/08/11 06:47:07;;;;;;;4.72;2.70;;;27.70;59.10;;;;;;4954767;28;20106;-48
2022/08/11 06:52:30;;;;;;;;;;;28.20;58.30;;;;;;4952142;29;20038;-50
2022/08/11 06:55:05;;;;;;;4.30;2.30;;;28.50;58.10;;;;;;4953800;28;19942;-47
2022/08/11 07:00:27;;;;;;;4.38;2.63;;;29.40;56.80;;;;;;4954502;29;20057;-52
2022/08/11 07:03:09;;;;;;;5.85;2.55;;;29.50;56.90;;;;;;4953976;28;20035;-50
2022/08/11 07:05:47;;;;;;;3.90;2.28;;;29.70;56.90;;;;;;4953988;28;20490;-48
2022/08/11 07:15:40;;;;;;;2.85;2.28;;;30.10;56.00;;;;;;4954290;29;20030;-50
2022/08/11 07:17:41;;;;;;;3.17;2.40;;;30.00;56.00;;;;;;4954284;29;20077;-48
2022/08/11 07:28:56;;;;;;;8.95;2.42;;;30.30;55.10;;;;;;4954049;29;20082;-48
2022/08/11 07:31:35;;;;;;;6.18;2.40;;;30.00;56.00;;;;;;4953688;28;20106;-52
2022/08/11 07:34:12;;;;;;;2.22;2.00;;;29.90;56.00;;;;;;4953464;28;20504;-50
2022/08/11 07:36:41;;;;;;;4.55;2.60;;;29.90;56.20;;;;;;4953909;28;20038;-48
2022/08/11 07:39:14;;;;;;;5.18;1.83;;;30.20;55.80;;;;;;4953566;28;20029;-54
2022/08/11 07:41:40;;;;;;;3.78;3.10;;;30.70;55.60;;;;;;4953548;28;20035;-47
2022/08/11 07:44:10;;;;;;;7.15;2.17;;;30.90;54.90;;;;;;4953246;28;20588;-48
2022/08/11 07:52:27;;;;;;;3.15;2.10;;;31.00;54.60;;;;;;4953421;29;20067;-54
2022/08/11 07:54:54;;;;;;;6.57;2.10;;;31.50;54.40;;;;;;4953226;28;20034;-50
2022/08/11 08:19:19;;;;;;;2.30;2.10;;;32.30;53.50;;;;;;4953517;29;20409;-51
2022/08/11 08:21:46;;;;;;;4.53;2.92;;;32.10;53.70;;;;;;4952946;28;20082;-47
2022/08/11 08:24:13;;;;;;;2.35;1.90;;;32.30;53.20;;;;;;4953235;28;20042;-49
2022/08/11 08:26:59;;;;;;;6.00;2.00;;;32.20;53.00;;;;;;4951937;28;20565;-48
2022/08/11 08:32:19;;;;;;;4.60;2.20;;;32.20;53.20;;;;;;4942543;29;20027;-52
2022/08/11 08:34:46;;;;;;;3.83;2.15;;;32.20;53.20;;;;;;4959674;28;20039;-50
2022/08/11 08:37:13;;;;;;;4.10;2.00;;;32.00;53.40;;;;;;4952834;28;20159;-47
2022/08/11 08:39:38;;;;;;;11.60;2.75;;;31.80;54.00;;;;;;4951569;28;20436;-50
2022/08/11 08:42:12;;;;;;;8.35;2.08;;;31.70;53.80;;;;;;4951130;29;20047;-48
2022/08/11 08:44:44;;;;;;;5.90;2.35;;;31.70;53.90;;;;;;4952582;29;20020;-50
2022/08/11 08:47:14;;;;;;;3.42;1.92;;;31.90;53.90;;;;;;4952253;28;20077;-48
2022/08/11 08:49:50;;;;;;;2.83;2.10;;;32.00;53.40;;;;;;4952379;28;20102;-56
2022/08/11 08:52:21;;;;;;;2.53;1.95;;;32.30;53.70;;;;;;4952377;28;20035;-49
2022/08/11 08:54:52;;;;;;;2.65;2.08;;;32.30;53.50;;;;;;4951446;28;20492;-60
2022/08/11 08:57:20;;;;;;;3.70;2.53;;;32.00;53.90;;;;;;4952723;28;20024;-47
2022/08/11 08:59:48;;;;;;;5.25;2.60;;;31.70;53.60;;;;;;4952744;28;20595;-45
2022/08/11 09:02:14;;;;;;;7.18;2.28;;;31.40;54.40;;;;;;4952122;28;20045;-47
2022/08/11 09:04:43;;;;;;;13.45;4.00;;;30.90;54.50;;;;;;4952690;29;20098;-50
2022/08/11 09:07:11;;;;;;;6.18;2.65;;;30.40;55.00;;;;;;4953168;28;20115;-48
2022/08/11 09:09:45;;;;;;;11.57;2.28;;;30.00;55.50;;;;;;4955573;28;20023;-50
2022/08/11 09:12:11;;;;;;;3.30;2.15;;;30.00;56.20;;;;;;4945714;29;20031;-48
2022/08/11 09:17:26;;;;;;;6.72;2.38;;;29.90;55.90;;;;;;4955096;29;20041;-48
2022/08/11 09:19:57;;;;;;;2.10;2.00;;;29.80;56.00;;;;;;4955764;28;20027;-53
2022/08/11 09:27:55;;;;;;;4.95;2.38;;;30.00;55.70;;;;;;4955498;29;20069;-47
2022/08/11 09:30:24;;;;;;;4.10;2.08;;;29.90;56.10;;;;;;4955477;28;20035;-51
2022/08/11 09:32:56;;;;;;;1.80;1.70;;;29.70;55.50;;;;;;4955237;28;20031;-51
2022/08/11 09:35:24;;;;;;;2.45;1.88;;;29.90;56.00;;;;;;4955391;28;20067;-51
2022/08/11 09:40:46;;;;;;;;;;;30.60;54.80;;;;;;4952030;29;20053;-49
2022/08/11 09:46:00;;;;;;;4.90;3.40;;;30.70;55.20;;;;;;4955502;29;20038;-49
2022/08/11 09:48:30;;;;;;;5.88;1.75;;;30.60;54.80;;;;;;4955318;28;20032;-47
2022/08/11 09:50:59;;;;;;;4.00;2.03;;;30.30;54.60;;;;;;4954977;28;20031;-48
2022/08/11 09:53:30;;;;;;;4.78;1.90;;;30.10;54.70;;;;;;4957050;28;20031;-52
2022/08/11 09:55:56;;;;;;;9.00;1.77;;;29.80;55.00;;;;;;4964095;28;20124;-49
2022/08/11 09:58:23;;;;;;;2.33;2.13;;;29.50;55.30;;;;;;4955293;28;20031;-48
2022/08/11 10:00:50;;;;;;;8.95;2.80;;;29.40;55.30;;;;;;4955830;28;20036;-51
2022/08/11 10:03:22;;;;;;;2.78;1.58;;;29.50;55.40;;;;;;4972621;28;20057;-50
2022/08/11 10:08:41;;;;;;;4.07;1.92;;;29.60;53.70;;;;;;4958879;28;20066;-47
2022/08/11 10:11:14;;;;;;;2.03;1.80;;;29.30;53.80;;;;;;4955435;28;20122;-51
2022/08/11 10:16:29;;;;;;;9.88;2.33;;;29.40;54.30;;;;;;4936463;29;20309;-48
2022/08/11 10:18:57;;;;;;;4.75;2.08;;;29.40;53.80;;;;;;4935733;28;20036;-51
2022/08/11 10:21:39;;;;;;;3.22;2.10;;;29.10;53.60;;;;;;4972603;28;20057;-51
2022/08/11 10:26:53;;;;;;;5.40;1.52;;;28.80;54.70;;;;;;4954925;29;20113;-49
2022/08/11 10:34:56;;;;;;;3.47;2.00;;;28.60;55.60;;;;;;4954983;29;20038;-49
2022/08/11 10:37:23;;;;;;;1.98;1.88;;;28.80;54.90;;;;;;4954847;28;20059;-49
2022/08/11 10:39:51;;;;;;;2.40;2.20;;;28.80;54.60;;;;;;4954649;28;20027;-51
2022/08/11 10:47:33;;;;;;;5.00;3.15;;;29.10;54.40;;;;;;4955277;29;20079;-52
2022/08/11 10:47:54;;;;;;;4.57;2.90;;;29.00;54.80;;;;;;4954550;29;20039;-53
2022/08/11 10:58:49;;;;;;;2.20;2.00;;;28.90;54.60;;;;;;4954421;29;20078;-52
2022/08/11 11:01:29;;;;;;;6.28;2.00;;;29.00;54.80;;;;;;4952849;29;20031;-53
2022/08/11 11:03:59;;;;;;;5.40;1.60;;;29.00;54.50;;;;;;4952595;29;20031;-55
2022/08/11 11:06:43;;;;;;;6.60;2.15;;;29.10;54.60;;;;;;4954225;28;20036;-55
2022/08/11 11:09:31;;;;;;;2.58;1.88;;;29.10;53.60;;;;;;4953959;28;20019;-50
2022/08/11 11:18:00;;;;;;;;;;;28.90;53.70;;;;;;4955491;29;20050;-46
2022/08/11 11:20:47;;;;;;;2.63;1.90;;;28.80;53.70;;;;;;4954037;28;20331;-47
2022/08/11 11:23:16;;;;;;;3.22;2.00;;;28.80;53.40;;;;;;4953712;28;20055;-48
2022/08/11 11:26:06;;;;;;;2.25;2.08;;;28.80;53.20;;;;;;4953802;29;20480;-50
2022/08/11 11:29:14;;;;;;;3.00;2.20;;;28.70;53.50;;;;;;4953929;29;20042;-49
2022/08/11 11:32:03;;;;;;;3.38;2.15;;;28.60;53.10;;;;;;4934503;29;20105;-48
2022/08/11 11:35:07;;;;;;;2.15;1.95;;;28.50;53.40;;;;;;4942400;29;20117;-50
2022/08/11 11:37:36;;;;;;;6.63;2.15;;;28.60;54.30;;;;;;4953460;28;20115;-50
2022/08/11 11:40:09;;;;;;;4.20;2.22;;;28.60;53.80;;;;;;4953598;28;20050;-50
2022/08/11 11:42:35;;;;;;;7.72;2.70;;;28.60;54.10;;;;;;4953402;28;20571;-46
2022/08/11 11:45:02;;;;;;;2.35;1.90;;;28.60;53.90;;;;;;4953105;28;20035;-52
2022/08/11 11:47:29;;;;;;;4.03;2.00;;;28.50;53.80;;;;;;4952414;28;20082;-48
2022/08/11 11:49:55;;;;;;;5.13;2.25;;;28.60;53.80;;;;;;4953326;28;20031;-54
2022/08/11 11:52:22;;;;;;;6.10;1.83;;;28.60;54.00;;;;;;4951811;29;20412;-48
2022/08/11 11:54:50;;;;;;;2.25;1.88;;;28.70;54.60;;;;;;4955973;28;20065;-51
2022/08/11 12:02:50;;;;;;;2.88;2.53;;;28.90;53.20;;;;;;4967782;28;20047;-47
2022/08/11 12:05:17;;;;;;;5.43;2.13;;;28.90;53.60;;;;;;4952872;29;20377;-47
2022/08/11 12:10:29;;;;;;;19.70;10.05;;;28.90;53.20;;;;;;4953267;29;20134;-47
2022/08/11 12:15:39;;;;;;;4.45;2.30;;;28.90;53.20;;;;;;4953186;29;20034;-50
2022/08/11 12:18:05;;;;;;;6.03;2.22;;;28.90;53.40;;;;;;4952503;29;20114;-46
2022/08/11 12:20:31;;;;;;;2.83;2.10;;;28.90;53.20;;;;;;4953118;29;20433;-45
2022/08/11 12:28:29;;;;;;;4.80;2.33;;;28.90;53.20;;;;;;4952525;29;20042;-47
2022/08/11 12:30:55;;;;;;;3.22;2.22;;;28.90;54.40;;;;;;4953061;28;20019;-48
2022/08/11 12:33:22;;;;;;;3.47;1.80;;;29.10;53.60;;;;;;4952897;29;20110;-46
2022/08/11 12:35:55;;;;;;;3.42;2.03;;;29.10;53.00;;;;;;4953085;28;20023;-46
2022/08/11 12:38:22;;;;;;;10.38;1.92;;;29.10;53.20;;;;;;4953034;28;20048;-46
2022/08/11 12:46:23;;;;;;;2.47;1.90;;;29.20;52.80;;;;;;4956735;29;20105;-48
2022/08/11 12:51:58;;;;;;;6.75;2.10;;;29.40;53.30;;;;;;4956806;29;20042;-47
2022/08/11 12:54:27;;;;;;;;;;;29.40;52.70;;;;;;4957291;28;20046;-46
2022/08/11 13:05:18;;;;;;;3.65;2.30;;;29.40;52.50;;;;;;4956866;29;20105;-45
2022/08/11 13:07:45;;;;;;;8.88;2.30;;;29.50;52.30;;;;;;4956611;28;20023;-48
2022/08/11 13:10:14;;;;;;;2.97;1.83;;;29.50;52.30;;;;;;4956414;28;20034;-47
2022/08/11 13:12:47;;;;;;;9.35;2.20;;;29.40;52.30;;;;;;4956247;28;20438;-49
2022/08/11 13:15:20;;;;;;;3.35;1.92;;;29.40;52.60;;;;;;4956413;28;20028;-46
2022/08/11 13:17:51;;;;;;;2.78;2.03;;;29.60;52.40;;;;;;4956221;28;20035;-52
2022/08/11 13:20:19;;;;;;;5.45;2.00;;;29.60;52.40;;;;;;4956035;28;20055;-52
2022/08/11 13:22:48;;;;;;;18.35;15.77;;;29.80;51.40;;;;;;4955631;28;20028;-48
2022/08/11 13:25:15;;;;;;;18.88;12.95;;;29.70;49.70;;;;;;4956120;28;20114;-47
2022/08/11 13:27:44;;;;;;;4.15;2.13;;;29.70;50.00;;;;;;4955413;28;20180;-47
2022/08/11 13:32:54;;;;;;;3.70;1.95;;;29.70;50.30;;;;;;4955674;29;20086;-47
2022/08/11 13:35:21;;;;;;;4.63;2.25;;;29.70;49.80;;;;;;4955921;28;20492;-50
2022/08/11 13:37:49;;;;;;;5.07;1.90;;;29.60;51.70;;;;;;4955759;29;20097;-47
2022/08/11 13:40:19;;;;;;;1.83;1.70;;;29.70;51.70;;;;;;4955725;28;20437;-49
2022/08/11 13:42:45;;;;;;;2.28;2.08;;;29.60;52.90;;;;;;4955335;28;20457;-52
2022/08/11 13:45:11;;;;;;;2.95;2.00;;;29.40;52.90;;;;;;4955634;28;20030;-48
2022/08/11 13:47:38;;;;;;;7.13;2.25;;;29.10;51.50;;;;;;4955838;28;20028;-50
2022/08/11 13:50:06;;;;;;;6.70;2.20;;;29.00;52.90;;;;;;4955375;28;20039;-47
2022/08/11 13:52:33;;;;;;;4.18;2.28;;;29.00;54.30;;;;;;4954819;28;20034;-48
2022/08/11 13:54:59;;;;;;;5.38;2.22;;;28.90;53.80;;;;;;4955559;28;20174;-48
2022/08/11 13:57:25;;;;;;;3.63;1.83;;;28.80;52.40;;;;;;4955235;28;20106;-50
2022/08/11 14:00:08;;;;;;;3.67;1.90;;;28.80;54.00;;;;;;4955384;28;20031;-48
2022/08/11 14:02:37;;;;;;;3.22;2.08;;;28.80;54.10;;;;;;4954802;28;20034;-47
2022/08/11 14:05:14;;;;;;;5.72;2.30;;;28.90;52.00;;;;;;4955321;28;20030;-50
2022/08/11 14:07:47;;;;;;;2.80;2.28;;;28.90;52.30;;;;;;4955657;28;20066;-48
2022/08/11 14:10:14;;;;;;;4.35;1.83;;;28.90;51.90;;;;;;4955291;29;20505;-48
2022/08/11 14:15:33;;;;;;;2.08;1.75;;;29.10;51.30;;;;;;4955019;29;20122;-47
2022/08/11 14:18:11;;;;;;;2.95;1.92;;;29.10;51.80;;;;;;4955249;28;20024;-48
2022/08/11 14:23:34;;;;;;;8.75;3.60;;;29.30;51.00;;;;;;4954664;29;20030;-47
2022/08/11 14:28:45;;;;;;;9.63;1.83;;;29.60;49.50;;;;;;4954966;29;20037;-50
2022/08/11 14:31:13;;;;;;;6.70;1.95;;;29.60;47.80;;;;;;4954964;28;20094;-52
2022/08/11 14:33:39;;;;;;;6.38;2.17;;;29.70;47.30;;;;;;4954631;28;20027;-50
2022/08/11 14:36:08;;;;;;;6.40;1.70;;;29.60;48.40;;;;;;4954784;28;20583;-50
2022/08/11 14:38:35;;;;;;;2.33;2.05;;;29.60;49.10;;;;;;4955304;28;20039;-48
2022/08/11 14:49:17;;;;;;;7.15;2.30;;;29.80;49.10;;;;;;4954566;29;20042;-49
2022/08/11 14:51:43;;;;;;;2.47;2.05;;;29.90;48.70;;;;;;4954226;28;20070;-51
2022/08/11 14:56:55;;;;;;;28.63;25.42;;;29.90;48.40;;;;;;4954765;29;20515;-50
2022/08/11 14:59:22;;;;;;;5.93;2.28;;;29.90;47.90;;;;;;4954332;28;20059;-49
2022/08/11 15:04:32;;;;;;;7.47;2.03;;;29.80;47.90;;;;;;4953557;28;20116;-48
2022/08/11 15:06:58;;;;;;;2.00;1.77;;;29.90;47.40;;;;;;4954085;29;20117;-48
2022/08/11 15:09:24;;;;;;;2.42;2.20;;;30.00;47.40;;;;;;4952930;29;20027;-48
2022/08/11 15:12:08;;;;;;;4.78;2.17;;;30.00;47.20;;;;;;4953991;29;20038;-50
2022/08/11 15:17:21;;;;;;;5.28;1.80;;;30.10;47.10;;;;;;4954412;29;20042;-46
2022/08/11 15:25:19;;;;;;;7.35;1.90;;;30.10;47.10;;;;;;4954263;29;20027;-49
2022/08/11 15:39:07;;;;;;;2.40;1.73;;;30.10;48.00;;;;;;4954056;29;20050;-53
2022/08/11 15:47:16;;;;;;;5.97;1.83;;;30.10;48.00;;;;;;4953955;29;20061;-49
2022/08/11 15:49:45;;;;;;;1.92;1.83;;;30.20;48.00;;;;;;4953437;28;20026;-49
2022/08/11 15:52:19;;;;;;;1.40;1.35;;;30.10;48.10;;;;;;4952906;28;20055;-48
2022/08/11 15:54:47;;;;;;;5.55;1.80;;;30.20;48.20;;;;;;4953557;28;20035;-50
2022/08/11 16:05:36;;;;;;;3.47;1.80;;;30.30;48.90;;;;;;4953262;29;20042;-49
2022/08/11 16:08:03;;;;;;;2.38;1.83;;;30.30;48.50;;;;;;4953343;28;20037;-49
2022/08/11 16:10:30;;;;;;;4.68;1.90;;;30.30;48.90;;;;;;4953216;28;20027;-48
2022/08/11 16:18:20;;;;;;;6.88;2.20;;;30.30;48.50;;;;;;4957250;29;20035;-49
2022/08/11 16:20:46;;;;;;;8.35;1.60;;;30.20;48.60;;;;;;4957120;28;20019;-49
2022/08/11 16:23:14;;;;;;;5.38;1.90;;;30.30;48.70;;;;;;4956893;28;20485;-49
2022/08/11 16:25:41;;;;;;;5.75;1.70;;;30.30;48.90;;;;;;4956690;28;20054;-51
2022/08/11 16:28:08;;;;;;;4.07;1.80;;;30.20;48.70;;;;;;4956653;28;20102;-48
2022/08/11 16:30:36;;;;;;;2.78;1.75;;;30.20;48.70;;;;;;4957018;28;20023;-51
2022/08/11 16:33:04;;;;;;;2.47;1.90;;;30.30;48.20;;;;;;4956740;28;20020;-51
2022/08/11 16:38:34;;;;;;;4.15;1.75;;;30.20;48.50;;;;;;4957121;29;20035;-49
2022/08/11 16:41:04;;;;;;;2.95;1.73;;;30.20;48.60;;;;;;4956634;28;20051;-51
2022/08/11 16:49:31;;;;;;;2.45;1.63;;;30.20;48.80;;;;;;4956480;29;20694;-51
2022/08/11 16:52:02;;;;;;;5.30;1.95;;;30.10;49.20;;;;;;4953356;29;20054;-53
2022/08/11 16:54:29;;;;;;;5.68;1.90;;;30.20;48.90;;;;;;4956671;28;20039;-52
2022/08/11 16:56:56;;;;;;;2.60;1.95;;;30.10;48.50;;;;;;4956310;28;20063;-48
2022/08/11 16:59:28;;;;;;;5.15;1.90;;;30.10;49.00;;;;;;4956456;28;20046;-46
2022/08/11 17:02:07;;;;;;;5.80;2.22;;;30.10;48.80;;;;;;4956225;28;20031;-52
2022/08/11 17:13:08;;;;;;;4.03;1.88;;;30.10;49.00;;;;;;4956260;29;20111;-47
2022/08/11 17:18:42;;;;;;;3.88;1.88;;;30.00;48.80;;;;;;4955831;29;20036;-53
2022/08/11 17:21:29;;;;;;;5.30;1.70;;;30.00;48.40;;;;;;4955406;28;20386;-49
2022/08/11 17:24:03;;;;;;;4.05;2.10;;;30.00;48.70;;;;;;4955143;28;20485;-44
2022/08/11 17:26:55;;;;;;;2.08;1.70;;;30.00;48.90;;;;;;4957193;28;20361;-45
2022/08/11 17:29:29;;;;;;;10.98;2.28;;;30.10;48.80;;;;;;4955445;28;20106;-48
2022/08/11 17:37:31;;;;;;;7.95;1.85;;;30.00;48.90;;;;;;4936906;29;20035;-48
2022/08/11 17:40:01;;;;;;;14.60;2.13;;;30.00;48.80;;;;;;4936327;29;20024;-46
2022/08/11 17:50:46;;;;;;;3.50;1.60;;;29.80;49.10;;;;;;4953006;29;20054;-49
2022/08/11 18:01:34;;;;;;;7.38;1.98;;;29.70;49.20;;;;;;4954497;28;20090;-46
2022/08/11 18:04:01;;;;;;;4.35;1.67;;;29.80;49.70;;;;;;4954107;28;20043;-44
2022/08/11 18:06:29;;;;;;;4.35;2.08;;;29.70;49.10;;;;;;4952339;28;20438;-44
